createdAt,value
2022-11-29T00:01:10.848Z,157.02
2022-11-29T00:03:37.684Z,154.15
2022-11-29T00:06:23.656Z,178.63
2022-11-29T00:08:50.928Z,179.52
2022-11-29T00:11:45.634Z,127.57
2022-11-29T00:14:15.351Z,147.75
2022-11-29T00:16:43.142Z,129.55
2022-11-29T00:19:12.013Z,139.88
2022-11-29T00:21:38.932Z,107.85
2022-11-29T00:24:07.984Z,125.63
2022-11-29T00:26:37.100Z,126.28
2022-11-29T00:29:04.550Z,136.20
2022-11-29T00:31:32.614Z,222.90
2022-11-29T00:34:01.457Z,276.60
2022-11-29T00:36:28.923Z,196.20
2022-11-29T00:38:56.025Z,276.98
2022-11-29T00:41:22.837Z,214.80
2022-11-29T00:43:49.587Z,158.40
2022-11-29T00:46:17.449Z,168.25
2022-11-29T00:48:44.267Z,139.20
2022-11-29T00:51:11.413Z,154.75
2022-11-29T00:53:38.535Z,208.93
2022-11-29T00:56:06.246Z,153.95
2022-11-29T00:58:35.758Z,179.77
2022-11-29T01:01:03.240Z,156.43
2022-11-29T01:03:30.489Z,181.90
2022-11-29T01:06:09.887Z,108.72
2022-11-29T01:08:36.834Z,147.80
2022-11-29T01:11:20.759Z,200.45
2022-11-29T01:13:48.411Z,169.95
2022-11-29T01:16:16.342Z,130.18
2022-11-29T01:18:43.934Z,210.32
2022-11-29T01:21:16.870Z,129.27
2022-11-29T01:23:44.652Z,162.82
2022-11-29T01:26:18.449Z,146.20
2022-11-29T01:28:47.695Z,119.50
2022-11-29T01:31:17.485Z,105.97
2022-11-29T01:33:44.223Z,109.25
2022-11-29T01:36:12.301Z,114.70
2022-11-29T01:38:39.610Z,107.82
2022-11-29T01:41:12.715Z,113.80
2022-11-29T01:44:00.971Z,93.93
2022-11-29T01:46:39.529Z,104.63
2022-11-29T01:49:21.593Z,101.68
2022-11-29T01:51:55.509Z,97.55
2022-11-29T01:54:22.718Z,96.28
2022-11-29T01:56:50.809Z,82.32
2022-11-29T01:59:28.811Z,83.90
2022-11-29T02:02:05.255Z,86.13
2022-11-29T02:04:35.615Z,112.55
2022-11-29T02:07:03.361Z,105.70
2022-11-29T02:09:30.296Z,90.32
2022-11-29T02:12:17.537Z,85.43
2022-11-29T02:15:05.348Z,84.55
2022-11-29T02:18:22.060Z,82.00
2022-11-29T02:21:05.558Z,85.50
2022-11-29T02:24:01.838Z,90.80
2022-11-29T02:26:58.101Z,87.28
2022-11-29T02:29:46.564Z,77.32
2022-11-29T02:32:44.627Z,80.47
2022-11-29T02:35:29.113Z,83.25
2022-11-29T02:38:06.327Z,113.65
2022-11-29T02:41:03.269Z,99.03
2022-11-29T02:43:51.384Z,205.50
2022-11-29T02:46:26.691Z,148.98
2022-11-29T02:48:59.241Z,290.38
2022-11-29T02:52:00.560Z,208.43
2022-11-29T02:54:48.590Z,128.00
2022-11-29T02:57:51.367Z,187.25
2022-11-29T03:00:22.707Z,165.30
2022-11-29T03:03:08.292Z,254.35
2022-11-29T03:05:47.131Z,286.83
2022-11-29T03:08:32.717Z,252.30
2022-11-29T03:11:22.723Z,214.55
2022-11-29T03:14:19.785Z,197.77
2022-11-29T03:17:07.357Z,287.25
2022-11-29T03:19:52.891Z,204.25
2022-11-29T03:22:34.030Z,118.30
2022-11-29T03:25:12.593Z,220.50
2022-11-29T03:27:39.258Z,249.80
2022-11-29T03:30:11.794Z,117.18
2022-11-29T03:33:05.018Z,348.88
2022-11-29T03:35:46.647Z,302.17
2022-11-29T03:38:21.619Z,300.10
2022-11-29T03:41:15.781Z,422.38
2022-11-29T03:44:01.541Z,351.75
2022-11-29T03:46:34.436Z,357.67
2022-11-29T03:49:14.985Z,241.70
2022-11-29T03:54:52.943Z,264.17
2022-11-29T03:57:29.532Z,376.95
2022-11-29T04:00:05.950Z,367.33
2022-11-29T04:03:05.013Z,300.40
2022-11-29T04:06:02.104Z,301.02
2022-11-29T04:08:47.787Z,280.02
2022-11-29T04:11:31.904Z,322.55
2022-11-29T04:14:52.473Z,376.48
2022-11-29T04:17:48.994Z,220.77
2022-11-29T04:20:46.815Z,367.13
2022-11-29T04:23:45.394Z,148.10
2022-11-29T04:26:49.498Z,264.17
2022-11-29T04:29:30.363Z,344.58
2022-11-29T04:32:23.729Z,325.90
2022-11-29T04:35:28.542Z,375.70
2022-11-29T04:38:11.039Z,292.38
2022-11-29T04:41:14.769Z,203.43
2022-11-29T04:44:07.074Z,146.63
2022-11-29T04:46:48.720Z,344.60
2022-11-29T04:49:25.616Z,179.93
2022-11-29T04:52:14.109Z,121.93
2022-11-29T04:55:08.087Z,193.88
2022-11-29T04:57:57.615Z,272.45
2022-11-29T05:00:25.160Z,187.10
2022-11-29T05:02:55.432Z,211.85
2022-11-29T05:05:46.957Z,258.92
2022-11-29T05:08:25.439Z,188.70
2022-11-29T05:11:14.296Z,224.77
2022-11-29T05:14:18.744Z,279.52
2022-11-29T05:17:20.067Z,161.23
2022-11-29T05:20:08.778Z,230.32
2022-11-29T05:23:00.268Z,137.77
2022-11-29T05:25:48.568Z,136.57
2022-11-29T05:28:43.778Z,178.13
2022-11-29T05:31:30.675Z,156.70
2022-11-29T05:34:16.199Z,110.10
2022-11-29T05:36:55.770Z,150.10
2022-11-29T05:40:00.492Z,184.98
2022-11-29T05:42:33.159Z,229.27
2022-11-29T05:45:03.556Z,177.35
2022-11-29T05:47:43.336Z,200.77
2022-11-29T05:50:40.963Z,136.27
2022-11-29T05:53:43.202Z,114.97
2022-11-29T05:56:40.540Z,173.30
2022-11-29T05:59:15.345Z,195.80
2022-11-29T06:02:26.345Z,143.75
2022-11-29T06:05:16.946Z,120.72
2022-11-29T06:07:51.989Z,164.93
2022-11-29T06:10:21.066Z,107.45
2022-11-29T06:13:34.066Z,182.20
2022-11-29T06:16:28.450Z,141.30
2022-11-29T06:19:17.167Z,175.57
2022-11-29T06:22:17.023Z,113.20
2022-11-29T06:24:47.855Z,131.68
2022-11-29T06:28:05.658Z,140.18
2022-11-29T06:31:16.931Z,136.05
2022-11-29T06:34:22.416Z,125.43
2022-11-29T06:36:54.099Z,70.43
2022-11-29T06:39:21.119Z,88.57
2022-11-29T06:41:48.874Z,80.30
2022-11-29T06:44:15.920Z,208.50
2022-11-29T06:46:51.581Z,269.83
2022-11-29T06:49:28.799Z,110.95
2022-11-29T06:52:22.567Z,149.18
2022-11-29T06:54:55.511Z,126.80
2022-11-29T06:57:48.781Z,101.05
2022-11-29T07:00:26.885Z,110.28
2022-11-29T07:03:31.890Z,109.00
2022-11-29T07:06:15.349Z,98.07
2022-11-29T07:08:43.678Z,62.80
2022-11-29T07:11:13.371Z,91.22
2022-11-29T07:13:40.478Z,104.85
2022-11-29T07:16:26.287Z,115.70
2022-11-29T07:19:08.051Z,99.03
2022-11-29T07:21:53.838Z,69.95
2022-11-29T07:24:23.645Z,117.28
2022-11-29T07:27:20.088Z,71.55
2022-11-29T07:30:05.259Z,77.38
2022-11-29T07:33:09.208Z,84.03
2022-11-29T07:36:10.910Z,45.55
2022-11-29T07:39:03.935Z,75.90
2022-11-29T07:41:57.438Z,48.65
2022-11-29T07:44:58.678Z,83.25
2022-11-29T07:47:25.397Z,60.30
2022-11-29T07:49:52.140Z,75.35
2022-11-29T07:52:20.087Z,50.63
2022-11-29T07:54:46.937Z,73.30
2022-11-29T07:57:14.894Z,58.00
2022-11-29T07:59:41.642Z,50.60
2022-11-29T08:02:11.911Z,57.67
2022-11-29T08:07:11.170Z,68.97
2022-11-29T08:09:37.953Z,76.32
2022-11-29T08:12:04.970Z,36.78
2022-11-29T08:14:33.320Z,41.65
2022-11-29T08:17:00.055Z,41.67
2022-11-29T08:19:26.851Z,36.55
2022-11-29T08:21:53.914Z,48.30
2022-11-29T08:24:20.802Z,58.25
2022-11-29T08:26:47.984Z,49.28
2022-11-29T08:29:15.281Z,42.40
2022-11-29T08:31:43.050Z,40.58
2022-11-29T08:34:10.736Z,35.30
2022-11-29T08:36:37.945Z,36.65
2022-11-29T08:39:09.174Z,36.63
2022-11-29T08:41:36.961Z,32.13
2022-11-29T08:44:05.718Z,34.17
2022-11-29T08:46:51.241Z,34.38
2022-11-29T08:49:18.204Z,68.93
2022-11-29T08:51:44.976Z,38.67
2022-11-29T08:54:11.982Z,48.20
2022-11-29T08:59:25.308Z,55.17
2022-11-29T09:01:52.137Z,51.42
2022-11-29T09:04:18.840Z,47.88
2022-11-29T09:06:49.532Z,48.63
2022-11-29T09:09:17.059Z,51.70
2022-11-29T09:11:48.218Z,32.72
2022-11-29T09:14:17.603Z,49.20
2022-11-29T09:16:44.358Z,45.47
2022-11-29T09:19:14.161Z,44.95
2022-11-29T09:21:40.965Z,74.72
2022-11-29T09:24:09.240Z,71.55
2022-11-29T09:26:38.017Z,58.72
2022-11-29T09:29:06.787Z,59.67
2022-11-29T09:31:34.446Z,66.10
2022-11-29T09:34:01.226Z,88.47
2022-11-29T09:36:29.568Z,93.97
2022-11-29T09:38:57.233Z,74.78
2022-11-29T09:41:51.802Z,116.13
2022-11-29T09:44:50.077Z,45.40
2022-11-29T09:47:22.753Z,90.05
2022-11-29T09:50:21.498Z,57.72
2022-11-29T09:53:27.122Z,38.53
2022-11-29T09:56:05.920Z,94.93
2022-11-29T09:58:43.759Z,65.97
2022-11-29T10:01:19.422Z,48.03
2022-11-29T10:03:51.905Z,99.63
2022-11-29T10:06:34.383Z,100.35
2022-11-29T10:09:43.920Z,73.35
2022-11-29T10:12:31.744Z,157.68
2022-11-29T10:15:04.883Z,164.30
2022-11-29T10:17:37.572Z,134.80
2022-11-29T10:20:09.890Z,57.33
2022-11-29T10:22:43.705Z,55.88
2022-11-29T10:25:21.401Z,105.22
2022-11-29T10:27:49.324Z,137.45
2022-11-29T10:30:16.778Z,80.28
2022-11-29T10:32:50.714Z,148.07
2022-11-29T10:35:19.634Z,54.08
2022-11-29T10:38:07.678Z,73.20
2022-11-29T10:40:37.774Z,32.63
2022-11-29T10:43:04.594Z,34.60
2022-11-29T10:45:40.489Z,54.33
2022-11-29T10:48:12.675Z,34.13
2022-11-29T10:50:45.564Z,42.35
2022-11-29T10:53:19.689Z,43.35
2022-11-29T10:55:53.589Z,31.80
2022-11-29T10:58:28.344Z,29.13
2022-11-29T11:01:08.372Z,29.88
2022-11-29T11:03:40.735Z,21.80
2022-11-29T11:06:13.398Z,37.13
2022-11-29T11:08:49.771Z,26.85
2022-11-29T11:11:33.261Z,47.08
2022-11-29T11:14:07.044Z,27.05
2022-11-29T11:16:37.540Z,34.03
2022-11-29T11:19:28.678Z,35.28
2022-11-29T11:22:00.728Z,28.05
2022-11-29T11:24:30.877Z,28.58
2022-11-29T11:26:58.042Z,28.35
2022-11-29T11:29:28.770Z,38.33
2022-11-29T11:31:57.977Z,30.88
2022-11-29T11:34:36.827Z,37.60
2022-11-29T11:37:20.514Z,31.60
2022-11-29T11:39:49.953Z,34.47
2022-11-29T11:42:38.923Z,50.22
2022-11-29T11:45:25.946Z,33.30
2022-11-29T11:47:56.394Z,36.85
2022-11-29T11:53:06.442Z,34.20
2022-11-29T11:55:53.497Z,30.35
2022-11-29T11:58:24.634Z,36.35
2022-11-29T12:01:10.138Z,33.72
2022-11-29T12:04:02.432Z,37.50
2022-11-29T12:06:40.439Z,32.55
2022-11-29T12:09:16.472Z,33.50
2022-11-29T12:12:01.341Z,36.78
2022-11-29T12:15:07.874Z,33.72
2022-11-29T12:17:44.246Z,33.42
2022-11-29T12:20:16.987Z,27.40
2022-11-29T12:22:58.368Z,33.92
2022-11-29T12:25:32.868Z,27.33
2022-11-29T12:27:59.777Z,28.00
2022-11-29T12:30:26.500Z,29.67
2022-11-29T12:33:23.855Z,28.30
2022-11-29T12:36:08.426Z,29.05
2022-11-29T12:39:03.870Z,36.08
2022-11-29T12:42:06.095Z,30.23
2022-11-29T12:44:43.103Z,31.67
2022-11-29T12:47:48.846Z,34.42
2022-11-29T12:50:39.896Z,26.40
2022-11-29T12:53:32.891Z,33.60
2022-11-29T12:56:23.969Z,28.00
2022-11-29T12:59:04.482Z,34.13
2022-11-29T13:04:25.632Z,33.53
2022-11-29T13:07:04.319Z,31.83
2022-11-29T13:09:55.966Z,32.50
2022-11-29T13:12:33.087Z,28.98
2022-11-29T13:15:06.773Z,37.90
2022-11-29T13:17:50.458Z,31.65
2022-11-29T13:20:32.118Z,30.42
2022-11-29T13:23:20.826Z,31.73
2022-11-29T13:25:54.421Z,29.65
2022-11-29T13:28:42.616Z,29.67
2022-11-29T13:31:22.624Z,30.13
2022-11-29T13:34:10.567Z,36.10
2022-11-29T13:37:04.784Z,31.10
2022-11-29T13:40:07.557Z,25.75
2022-11-29T13:42:58.380Z,35.80
2022-11-29T13:45:42.181Z,25.05
2022-11-29T13:48:33.173Z,27.75
2022-11-29T13:51:28.739Z,33.92
2022-11-29T13:53:57.505Z,27.20
2022-11-29T13:56:48.279Z,30.05
2022-11-29T13:59:30.236Z,24.33
2022-11-29T14:01:58.491Z,30.38
2022-11-29T14:04:38.622Z,30.48
2022-11-29T14:07:12.228Z,26.10
2022-11-29T14:09:48.458Z,30.67
2022-11-29T14:12:27.494Z,25.63
2022-11-29T14:15:02.797Z,24.20
2022-11-29T14:17:58.867Z,25.17
2022-11-29T14:20:26.417Z,23.35
2022-11-29T14:23:05.193Z,23.73
2022-11-29T14:25:56.612Z,21.77
2022-11-29T14:28:23.302Z,23.60
2022-11-29T14:30:58.351Z,29.98
2022-11-29T14:33:47.186Z,27.60
2022-11-29T14:36:21.949Z,26.65
2022-11-29T14:39:13.518Z,28.42
2022-11-29T14:41:49.107Z,24.90
2022-11-29T14:44:26.064Z,24.80
2022-11-29T14:47:21.943Z,29.17
2022-11-29T14:49:48.864Z,27.45
2022-11-29T14:52:38.025Z,26.10
2022-11-29T14:55:15.658Z,27.92
2022-11-29T14:57:48.066Z,24.55
2022-11-29T15:00:17.503Z,25.92
2022-11-29T15:03:11.108Z,27.52
2022-11-29T15:05:44.045Z,29.42
2022-11-29T15:08:29.563Z,29.40
2022-11-29T15:10:59.719Z,25.80
2022-11-29T15:13:31.983Z,30.00
2022-11-29T15:16:17.338Z,59.03
2022-11-29T15:19:06.479Z,98.07
2022-11-29T15:21:39.139Z,80.20
2022-11-29T15:24:23.660Z,52.88
2022-11-29T15:27:03.515Z,73.38
2022-11-29T15:29:32.265Z,40.75
2022-11-29T15:32:03.542Z,38.83
2022-11-29T15:34:40.244Z,54.83
2022-11-29T15:37:20.652Z,136.48
2022-11-29T15:39:47.379Z,36.95
2022-11-29T15:42:18.142Z,89.20
2022-11-29T15:44:49.260Z,115.43
2022-11-29T15:47:23.801Z,81.15
2022-11-29T15:49:52.222Z,135.85
2022-11-29T15:52:31.362Z,72.97
2022-11-29T15:55:04.753Z,151.10
2022-11-29T15:57:49.474Z,73.13
2022-11-29T16:00:23.108Z,102.90
2022-11-29T16:03:02.378Z,59.50
2022-11-29T16:05:36.861Z,67.05
2022-11-29T16:08:18.853Z,63.38
2022-11-29T16:10:50.396Z,47.17
2022-11-29T16:13:37.029Z,84.88
2022-11-29T16:16:20.426Z,46.78
2022-11-29T16:18:48.779Z,61.72
2022-11-29T16:21:30.875Z,57.67
2022-11-29T16:23:58.883Z,31.83
2022-11-29T16:26:39.734Z,37.55
2022-11-29T16:29:24.445Z,43.65
2022-11-29T16:31:52.111Z,34.28
2022-11-29T16:34:30.670Z,45.13
2022-11-29T16:37:06.586Z,33.35
2022-11-29T16:39:38.785Z,33.20
2022-11-29T16:42:24.904Z,26.42
2022-11-29T16:44:58.983Z,35.35
2022-11-29T16:47:28.473Z,30.45
2022-11-29T16:50:15.731Z,29.85
2022-11-29T16:52:42.870Z,29.90
2022-11-29T16:55:09.948Z,29.38
2022-11-29T16:57:37.096Z,31.38
2022-11-29T17:00:15.969Z,25.65
2022-11-29T17:02:43.258Z,26.33
2022-11-29T17:05:10.498Z,28.75
2022-11-29T17:07:39.950Z,27.88
2022-11-29T17:10:08.544Z,27.02
2022-11-29T17:12:35.247Z,32.90
2022-11-29T17:15:02.099Z,27.70
2022-11-29T17:17:35.884Z,28.05
2022-11-29T17:20:02.574Z,28.23
2022-11-29T17:22:30.250Z,24.67
2022-11-29T17:24:56.977Z,26.27
2022-11-29T17:27:24.007Z,29.15
2022-11-29T17:29:50.764Z,30.52
2022-11-29T17:32:19.828Z,29.05
2022-11-29T17:34:48.755Z,32.25
2022-11-29T17:37:15.434Z,31.17
2022-11-29T17:39:52.418Z,28.52
2022-11-29T17:42:21.195Z,27.83
2022-11-29T17:44:47.946Z,26.98
2022-11-29T17:47:15.144Z,26.23
2022-11-29T17:49:42.020Z,22.08
2022-11-29T17:52:08.727Z,24.95
2022-11-29T17:54:36.058Z,22.90
2022-11-29T17:57:04.554Z,24.50
2022-11-29T17:59:31.395Z,26.88
2022-11-29T18:01:58.210Z,25.55
2022-11-29T18:04:25.114Z,28.02
2022-11-29T18:06:51.827Z,24.48
2022-11-29T18:09:19.960Z,24.10
2022-11-29T18:11:49.391Z,23.58
2022-11-29T18:14:20.783Z,28.35
2022-11-29T18:16:47.732Z,24.90
2022-11-29T18:19:17.530Z,25.42
2022-11-29T18:21:44.733Z,24.95
2022-11-29T18:24:11.542Z,24.60
2022-11-29T18:26:39.190Z,25.30
2022-11-29T18:29:07.622Z,24.02
2022-11-29T18:31:37.191Z,24.40
2022-11-29T18:34:13.079Z,24.70
2022-11-29T18:36:43.806Z,20.98
2022-11-29T18:39:17.175Z,21.60
2022-11-29T18:41:47.098Z,22.15
2022-11-29T18:44:15.701Z,19.50
2022-11-29T18:46:44.659Z,21.20
2022-11-29T18:49:14.317Z,28.20
2022-11-29T18:51:44.422Z,20.77
2022-11-29T18:54:14.081Z,19.70
2022-11-29T18:56:43.892Z,20.23
2022-11-29T18:59:17.305Z,18.48
2022-11-29T19:01:48.045Z,18.05
2022-11-29T19:04:20.049Z,17.63
2022-11-29T19:06:47.106Z,20.67
2022-11-29T19:09:21.922Z,21.80
2022-11-29T19:11:55.504Z,24.33
2022-11-29T19:14:23.219Z,18.58
2022-11-29T19:16:50.256Z,16.00
2022-11-29T19:19:18.906Z,26.50
2022-11-29T19:21:45.741Z,16.73
2022-11-29T19:24:15.152Z,16.13
2022-11-29T19:26:51.329Z,18.40
2022-11-29T19:29:17.992Z,17.40
2022-11-29T19:31:44.824Z,15.95
2022-11-29T19:34:11.499Z,20.48
2022-11-29T19:36:43.069Z,14.45
2022-11-29T19:39:12.801Z,19.15
2022-11-29T19:41:42.504Z,24.95
2022-11-29T19:44:09.263Z,59.92
2022-11-29T19:46:39.441Z,35.97
2022-11-29T19:49:07.491Z,25.90
2022-11-29T19:51:34.880Z,23.80
2022-11-29T19:54:04.464Z,19.23
2022-11-29T19:56:32.434Z,23.00
2022-11-29T19:59:01.921Z,22.08
2022-11-29T20:01:39.709Z,20.20
2022-11-29T20:04:08.420Z,21.23
2022-11-29T20:06:35.705Z,40.15
2022-11-29T20:09:04.021Z,23.48
2022-11-29T20:11:30.725Z,22.67
2022-11-29T20:14:01.064Z,20.77
2022-11-29T20:16:30.062Z,18.95
2022-11-29T20:18:57.707Z,16.58
2022-11-29T20:21:30.029Z,19.85
2022-11-29T20:24:00.681Z,20.63
2022-11-29T20:26:29.919Z,15.10
2022-11-29T20:28:56.743Z,17.38
2022-11-29T20:31:23.756Z,18.00
2022-11-29T20:33:52.726Z,20.85
2022-11-29T20:36:34.439Z,19.02
2022-11-29T20:39:29.644Z,13.32
2022-11-29T20:42:28.840Z,17.23
2022-11-29T20:45:04.066Z,14.80
2022-11-29T20:47:54.290Z,14.80
2022-11-29T20:50:23.444Z,15.30
2022-11-29T20:52:56.687Z,15.40
2022-11-29T20:55:23.623Z,14.68
2022-11-29T20:57:50.415Z,16.48
2022-11-29T21:00:18.137Z,12.80
2022-11-29T21:02:44.879Z,21.05
2022-11-29T21:05:19.724Z,21.52
2022-11-29T21:07:46.739Z,20.77
2022-11-29T21:10:15.440Z,18.80
2022-11-29T21:12:45.516Z,19.38
2022-11-29T21:15:13.955Z,16.92
2022-11-29T21:17:42.199Z,18.63
2022-11-29T21:20:18.095Z,17.77
2022-11-29T21:23:08.777Z,21.98
2022-11-29T21:25:49.001Z,19.55
2022-11-29T21:28:16.630Z,18.50
2022-11-29T21:30:43.969Z,14.77
2022-11-29T21:33:11.662Z,9.80
2022-11-29T21:35:39.901Z,15.65
2022-11-29T21:38:10.101Z,13.90
2022-11-29T21:40:36.777Z,17.00
2022-11-29T21:43:03.511Z,14.68
2022-11-29T21:45:30.166Z,18.40
2022-11-29T21:48:00.597Z,16.15
2022-11-29T21:50:27.484Z,18.95
2022-11-29T21:52:54.138Z,16.60
2022-11-29T21:55:20.849Z,17.65
2022-11-29T21:57:47.536Z,14.70
2022-11-29T22:00:14.727Z,17.48
2022-11-29T22:02:41.521Z,12.07
2022-11-29T22:05:09.552Z,18.27
2022-11-29T22:07:36.407Z,21.35
2022-11-29T22:10:10.023Z,19.63
2022-11-29T22:12:51.392Z,18.95
2022-11-29T22:15:24.099Z,19.25
2022-11-29T22:17:51.750Z,17.42
2022-11-29T22:20:18.512Z,17.98
2022-11-29T22:22:47.625Z,18.63
2022-11-29T22:25:15.251Z,19.23
2022-11-29T22:27:42.045Z,21.25
2022-11-29T22:30:09.094Z,21.08
2022-11-29T22:32:35.810Z,28.52
2022-11-29T22:35:02.556Z,26.13
2022-11-29T22:37:29.287Z,21.52
2022-11-29T22:39:55.957Z,20.15
2022-11-29T22:42:22.674Z,26.17
2022-11-29T22:44:49.612Z,20.00
2022-11-29T22:47:16.440Z,21.75
2022-11-29T22:49:44.532Z,24.90
2022-11-29T22:52:11.285Z,27.50
2022-11-29T22:54:37.980Z,26.30
2022-11-29T22:57:04.829Z,26.98
2022-11-29T22:59:50.491Z,22.05
2022-11-29T23:02:17.278Z,26.65
2022-11-29T23:04:44.236Z,29.67
2022-11-29T23:07:11.078Z,30.73
2022-11-29T23:09:37.750Z,33.58
2022-11-29T23:12:04.674Z,25.75
2022-11-29T23:14:31.405Z,28.70
2022-11-29T23:16:58.188Z,27.40
2022-11-29T23:19:24.897Z,29.80
2022-11-29T23:21:52.001Z,30.67
2022-11-29T23:24:18.674Z,30.42
2022-11-29T23:26:47.333Z,28.83
2022-11-29T23:29:17.222Z,29.77
2022-11-29T23:31:44.343Z,27.40
2022-11-29T23:34:11.127Z,30.58
2022-11-29T23:36:37.948Z,31.30
2022-11-29T23:39:06.583Z,34.85
2022-11-29T23:41:34.410Z,36.50
2022-11-29T23:44:04.060Z,32.60
2022-11-29T23:46:30.773Z,31.23
2022-11-29T23:48:57.614Z,35.10
2022-11-29T23:51:24.467Z,33.00
2022-11-29T23:53:53.236Z,32.58
2022-11-29T23:56:21.101Z,34.50
2022-11-29T23:58:48.457Z,31.40
